Time;durP1;ratioP1;P1;durP2;ratioP2;P2;SDS_P1;SDS_P2;PMS_P1;PMS_P2;Temp;Humidity;BMP_temperature;BMP_pressure;BME280_temperature;BME280_humidity;BME280_pressure;Samples;Min_cycle;Max_cycle;Signal;HPM_P1;HPM_P2
2022/08/10 00:00:55;;;;;;;0.63;0.63;;;;;;;27.34;36.83;95205.03;5033064;28;20209;-71
2022/08/10 00:03:22;;;;;;;0.50;0.50;;;;;;;26.86;37.96;95207.06;5032798;28;20208;-74
2022/08/10 00:05:49;;;;;;;0.73;0.73;;;;;;;26.88;37.81;95204.78;5031998;28;20231;-73
2022/08/10 00:08:20;;;;;;;0.87;0.80;;;;;;;27.04;37.61;95213.59;5032709;28;20210;-66
2022/08/10 00:10:55;;;;;;;0.93;0.77;;;;;;;27.23;37.33;95204.00;5014820;28;20201;-71
2022/08/10 00:13:24;;;;;;;1.23;1.00;;;;;;;27.42;36.81;95206.75;5038246;28;20236;-69
2022/08/10 00:15:51;;;;;;;0.50;0.50;;;;;;;27.37;36.86;95207.03;5029010;28;20190;-69
2022/08/10 00:18:25;;;;;;;0.97;0.97;;;;;;;27.28;36.97;95195.66;5012789;28;20194;-69
2022/08/10 00:21:06;;;;;;;0.30;0.30;;;;;;;27.45;36.72;95208.72;5016063;28;20216;-69
2022/08/10 00:23:34;;;;;;;0.43;0.43;;;;;;;27.42;37.58;95206.75;5032467;28;20209;-70
2022/08/10 00:26:02;;;;;;;0.53;0.53;;;;;;;27.45;37.44;95206.03;5031956;28;20201;-70
2022/08/10 00:28:29;;;;;;;1.17;1.07;;;;;;;27.43;36.92;95197.50;5032267;28;20692;-72
2022/08/10 00:30:56;;;;;;;0.77;0.77;;;;;;;27.56;36.60;95190.84;5032665;28;20695;-72
2022/08/10 00:33:23;;;;;;;0.43;0.43;;;;;;;27.68;36.76;95193.41;5032355;28;20711;-72
2022/08/10 00:35:50;;;;;;;0.43;0.43;;;;;;;27.47;36.78;95188.41;5032131;28;20227;-74
2022/08/10 00:38:17;;;;;;;0.23;0.23;;;;;;;26.95;37.60;95199.56;5032493;28;20197;-72
2022/08/10 00:40:44;;;;;;;0.90;0.70;;;;;;;26.65;38.45;95201.19;5032279;28;20587;-69
2022/08/10 00:43:11;;;;;;;0.73;0.73;;;;;;;27.08;38.63;95213.66;5032089;28;20201;-70
2022/08/10 00:45:38;;;;;;;0.63;0.63;;;;;;;27.01;38.39;95214.31;5031811;28;20200;-75
2022/08/10 00:48:05;;;;;;;0.90;0.87;;;;;;;26.97;38.22;95213.44;5017345;28;20198;-73
2022/08/10 00:50:33;;;;;;;0.67;0.67;;;;;;;27.40;37.31;95206.31;5031816;28;20201;-69
2022/08/10 00:53:00;;;;;;;1.53;0.90;;;;;;;27.36;37.29;95203.53;5031800;28;20251;-72
2022/08/10 00:55:27;;;;;;;1.00;1.00;;;;;;;27.28;37.43;95190.28;5031773;28;20249;-69
2022/08/10 00:57:55;;;;;;;0.70;0.70;;;;;;;27.47;36.98;95190.28;5031802;28;20614;-71
2022/08/10 01:00:23;;;;;;;0.30;0.30;;;;;;;26.54;38.72;95189.41;5031281;28;20224;-67
2022/08/10 01:02:50;;;;;;;1.07;1.07;;;;;;;26.44;38.87;95189.91;5031055;28;20197;-67
2022/08/10 01:05:19;;;;;;;0.80;0.80;;;;;;;25.95;40.20;95192.13;5031506;28;20213;-73
2022/08/10 01:08:04;;;;;;;0.33;0.33;;;;;;;26.56;39.31;95203.28;5031588;28;20193;-70
2022/08/10 01:10:40;;;;;;;1.13;0.97;;;;;;;26.08;40.21;95202.81;5017553;28;20196;-70
2022/08/10 01:13:10;;;;;;;0.60;0.60;;;;;;;26.07;40.32;95207.44;5031665;28;20663;-73
2022/08/10 01:15:46;;;;;;;0.20;0.20;;;;;;;26.30;39.80;95203.00;5031124;28;20197;-70
2022/08/10 01:18:19;;;;;;;1.17;1.10;;;;;;;26.06;40.41;95205.09;5031395;28;20189;-70
2022/08/10 01:21:03;;;;;;;1.43;0.70;;;;;;;26.32;40.14;95203.44;5031195;28;20509;-71
2022/08/10 01:23:55;;;;;;;1.27;1.07;;;;;;;26.64;39.72;95194.22;5031438;28;20244;-74
2022/08/10 01:27:03;;;;;;;1.30;1.07;;;;;;;26.10;40.64;95201.38;5011667;28;20213;-72
2022/08/10 01:29:36;;;;;;;0.80;0.80;;;;;;;26.08;40.98;95211.66;4992218;28;20601;-70
2022/08/10 01:32:05;;;;;;;0.83;0.83;;;;;;;25.96;41.20;95203.66;5011606;28;20202;-69
2022/08/10 01:34:50;;;;;;;0.83;0.83;;;;;;;26.01;41.10;95198.81;5045659;28;20272;-68
2022/08/10 01:37:23;;;;;;;0.70;0.67;;;;;;;26.12;41.05;95199.13;5030790;28;20217;-73
2022/08/10 01:39:55;;;;;;;0.60;0.60;;;;;;;26.16;41.12;95200.00;5030659;28;20739;-71
2022/08/10 01:42:23;;;;;;;0.83;0.80;;;;;;;26.48;40.25;95193.47;5031021;28;20197;-71
2022/08/10 01:45:01;;;;;;;0.50;0.50;;;;;;;26.30;40.59;95184.22;5030624;28;20185;-71
2022/08/10 01:50:28;;;;;;;0.20;0.20;;;;;;;25.93;41.61;95197.06;5030556;28;20190;-74
2022/08/10 01:53:02;;;;;;;0.60;0.60;;;;;;;25.52;42.58;95186.00;5030648;28;20189;-69
2022/08/10 01:55:50;;;;;;;0.97;0.97;;;;;;;25.46;42.87;95190.81;5029508;28;20220;-73
2022/08/10 01:58:19;;;;;;;0.87;0.87;;;;;;;25.96;42.07;95190.25;5030440;28;20231;-70
2022/08/10 02:00:49;;;;;;;1.10;1.10;;;;;;;26.14;41.72;95196.88;5030376;28;20784;-69
2022/08/10 02:03:18;;;;;;;4.67;0.70;;;;;;;25.25;42.81;95184.06;5030879;28;20197;-69
2022/08/10 02:05:48;;;;;;;0.93;0.53;;;;;;;26.15;41.63;95192.28;5010463;28;20245;-69
2022/08/10 02:08:18;;;;;;;0.70;0.70;;;;;;;26.17;41.27;95196.16;5023616;28;20204;-70
2022/08/10 02:10:46;;;;;;;1.73;1.20;;;;;;;26.19;41.13;95177.78;5011504;28;20205;-71
2022/08/10 02:13:16;;;;;;;0.97;0.87;;;;;;;26.46;40.39;95187.66;5022753;28;20288;-69
2022/08/10 02:15:47;;;;;;;1.20;1.07;;;;;;;26.36;41.03;95190.09;5016141;28;20200;-69
2022/08/10 02:18:29;;;;;;;0.50;0.50;;;;;;;26.42;40.78;95191.41;5030837;28;20211;-71
2022/08/10 02:21:01;;;;;;;0.27;0.27;;;;;;;26.62;40.54;95180.34;5029793;28;20687;-75
2022/08/10 02:23:30;;;;;;;1.07;1.07;;;;;;;26.92;39.97;95189.53;5030523;28;20232;-74
2022/08/10 02:25:59;;;;;;;0.50;0.50;;;;;;;26.96;39.85;95190.38;5025516;28;20198;-72
2022/08/10 02:28:29;;;;;;;0.80;0.70;;;;;;;27.21;39.67;95190.13;5020146;28;20201;-73
2022/08/10 02:31:02;;;;;;;1.17;1.07;;;;;;;27.14;39.98;95195.34;5030104;28;20201;-70
2022/08/10 02:33:34;;;;;;;0.27;0.27;;;;;;;27.08;39.96;95202.91;5030360;28;20283;-73
2022/08/10 02:36:08;;;;;;;0.83;0.83;;;;;;;26.98;39.69;95193.50;5029418;28;20236;-75
2022/08/10 02:38:41;;;;;;;0.40;0.40;;;;;;;26.80;40.34;95207.69;5030434;28;20225;-74
2022/08/10 02:41:29;;;;;;;1.13;0.83;;;;;;;26.87;39.88;95194.41;5029836;28;20225;-67
2022/08/10 02:44:32;;;;;;;0.83;0.83;;;;;;;26.81;39.89;95199.25;5028505;28;20190;-74
2022/08/10 02:47:31;;;;;;;0.50;0.50;;;;;;;26.93;39.80;95201.06;5029468;28;20295;-71
2022/08/10 02:50:38;;;;;;;1.50;0.90;;;;;;;26.50;40.64;95198.50;5029504;28;20212;-71
2022/08/10 02:53:14;;;;;;;0.30;0.30;;;;;;;26.56;40.46;95180.97;5029790;28;20197;-73
2022/08/10 02:56:08;;;;;;;0.30;0.30;;;;;;;26.68;40.41;95189.75;5023461;28;20189;-70
2022/08/10 02:58:59;;;;;;;1.87;1.07;;;;;;;26.72;40.38;95196.00;5029762;28;20670;-69
2022/08/10 03:01:32;;;;;;;0.87;0.87;;;;;;;26.03;41.93;95203.84;5029427;28;20578;-70
2022/08/10 03:04:10;;;;;;;0.60;0.60;;;;;;;26.33;41.46;95205.00;5029604;28;20212;-71
2022/08/10 03:06:42;;;;;;;0.30;0.30;;;;;;;26.30;41.28;95197.63;5031121;28;20228;-70
2022/08/10 03:09:12;;;;;;;0.43;0.43;;;;;;;26.40;41.61;95205.19;5035839;28;20292;-69
2022/08/10 03:11:42;;;;;;;0.63;0.63;;;;;;;26.38;41.48;95202.06;5034285;28;20242;-68
2022/08/10 03:14:30;;;;;;;0.50;0.50;;;;;;;26.68;40.78;95197.81;5033744;28;20199;-72
2022/08/10 03:16:58;;;;;;;0.77;0.77;;;;;;;26.62;41.11;95196.47;5029855;28;20216;-69
2022/08/10 03:19:28;;;;;;;2.87;1.73;;;;;;;26.25;41.88;95200.59;5029395;28;20658;-74
2022/08/10 03:22:16;;;;;;;1.23;1.13;;;;;;;26.35;41.52;95197.38;5029643;28;20224;-72
2022/08/10 03:24:44;;;;;;;2.63;1.23;;;;;;;25.98;42.49;95210.22;5028543;28;20205;-74
2022/08/10 03:27:13;;;;;;;2.37;1.20;;;;;;;26.18;42.25;95210.38;5029775;28;20255;-71
2022/08/10 03:29:40;;;;;;;0.60;0.60;;;;;;;25.78;43.04;95221.22;5029710;28;20296;-73
2022/08/10 03:32:29;;;;;;;0.70;0.70;;;;;;;25.91;42.78;95220.78;5029136;28;20619;-73
2022/08/10 03:34:58;;;;;;;0.90;0.73;;;;;;;26.04;42.81;95224.22;5029465;28;20212;-70
2022/08/10 03:37:26;;;;;;;1.90;0.90;;;;;;;26.09;42.07;95212.44;5032377;28;20199;-68
2022/08/10 03:39:54;;;;;;;0.60;0.60;;;;;;;26.41;41.86;95214.81;5030332;28;20190;-71
2022/08/10 03:42:25;;;;;;;1.00;0.77;;;;;;;26.49;41.66;95223.81;5026040;28;20966;-69
2022/08/10 03:44:53;;;;;;;0.73;0.73;;;;;;;26.57;41.42;95229.00;5029719;28;20212;-73
2022/08/10 03:47:23;;;;;;;0.40;0.40;;;;;;;26.24;42.15;95233.19;5032677;28;20189;-70
2022/08/10 03:49:51;;;;;;;0.53;0.53;;;;;;;26.24;42.23;95231.25;5018421;28;20202;-70
2022/08/10 03:52:18;;;;;;;1.07;0.90;;;;;;;26.58;41.53;95233.28;5021688;28;20632;-73
2022/08/10 03:54:46;;;;;;;0.50;0.50;;;;;;;26.39;42.15;95232.38;5029315;28;20193;-73
2022/08/10 03:57:13;;;;;;;0.80;0.80;;;;;;;26.54;41.74;95237.78;5029181;28;20206;-68
2022/08/10 03:59:40;;;;;;;0.47;0.47;;;;;;;26.26;42.32;95234.38;5028140;28;20204;-72
2022/08/10 04:02:08;;;;;;;0.83;0.80;;;;;;;26.28;42.51;95234.81;5026804;28;20248;-72
2022/08/10 04:04:55;;;;;;;0.97;0.97;;;;;;;26.15;42.22;95232.56;5010031;28;20280;-72
2022/08/10 04:07:22;;;;;;;0.60;0.60;;;;;;;26.01;42.64;95243.69;5025204;28;20296;-68
2022/08/10 04:09:50;;;;;;;0.57;0.57;;;;;;;26.02;42.68;95242.56;5028946;28;20208;-73
2022/08/10 04:12:22;;;;;;;0.67;0.67;;;;;;;26.24;42.21;95246.63;5028866;28;20273;-73
2022/08/10 04:14:49;;;;;;;1.30;0.80;;;;;;;26.40;42.02;95237.44;5020711;28;20718;-70
2022/08/10 04:17:24;;;;;;;0.47;0.47;;;;;;;26.44;42.04;95238.28;5026496;28;20194;-68
2022/08/10 04:20:37;;;;;;;0.33;0.33;;;;;;;26.24;42.41;95236.63;5029044;28;20726;-72
2022/08/10 04:23:12;;;;;;;1.10;0.93;;;;;;;26.26;42.52;95247.81;5017980;28;20193;-72
2022/08/10 04:25:40;;;;;;;2.53;0.93;;;;;;;26.20;42.66;95243.84;5030706;28;20255;-72
2022/08/10 04:28:07;;;;;;;0.93;0.93;;;;;;;26.57;41.63;95241.69;5020022;28;20200;-70
2022/08/10 04:30:35;;;;;;;0.30;0.30;;;;;;;26.53;41.86;95252.31;5031811;28;20213;-72
2022/08/10 04:33:05;;;;;;;0.60;0.60;;;;;;;26.49;42.49;95240.72;5029978;28;20274;-75
2022/08/10 04:35:33;;;;;;;1.00;1.00;;;;;;;26.51;42.44;95241.16;5030954;28;20742;-68
2022/08/10 04:38:02;;;;;;;2.47;2.27;;;;;;;26.51;42.29;95243.84;5030815;28;20664;-71
2022/08/10 04:40:30;;;;;;;4.00;3.33;;;;;;;26.55;42.39;95249.31;5032041;28;20200;-68
2022/08/10 04:43:03;;;;;;;3.73;3.13;;;;;;;26.83;42.18;95248.09;5026640;28;20284;-65
2022/08/10 04:45:40;;;;;;;2.37;1.40;;;;;;;26.62;42.36;95247.56;5025686;28;20197;-68
2022/08/10 04:48:22;;;;;;;2.30;1.80;;;;;;;26.70;42.55;95248.53;5019248;28;20212;-69
2022/08/10 04:51:15;;;;;;;4.47;3.60;;;;;;;26.85;42.32;95248.53;5031554;28;20769;-68
2022/08/10 04:53:47;;;;;;;1.50;1.17;;;;;;;26.69;42.58;95245.09;5031055;28;20297;-69
2022/08/10 04:56:36;;;;;;;0.87;0.87;;;;;;;26.12;43.78;95236.72;5031482;28;20355;-67
2022/08/10 04:59:06;;;;;;;1.23;1.13;;;;;;;26.24;43.78;95244.69;5031926;28;20201;-65
2022/08/10 05:01:34;;;;;;;0.40;0.40;;;;;;;26.49;43.10;95235.34;5031465;28;20259;-69
2022/08/10 05:04:22;;;;;;;0.77;0.77;;;;;;;26.13;43.54;95243.63;5028471;28;20221;-70
2022/08/10 05:07:09;;;;;;;2.93;0.80;;;;;;;26.47;43.37;95248.34;5030303;28;20236;-67
2022/08/10 05:09:37;;;;;;;0.47;0.47;;;;;;;26.51;43.41;95238.47;5031521;28;20692;-67
2022/08/10 05:12:25;;;;;;;1.10;1.10;;;;;;;26.12;44.45;95239.41;5031728;28;20607;-65
2022/08/10 05:14:52;;;;;;;2.30;1.53;;;;;;;26.11;44.05;95237.84;5031488;28;20221;-66
2022/08/10 05:17:21;;;;;;;1.40;0.97;;;;;;;25.96;44.57;95246.63;5031605;28;20232;-68
2022/08/10 05:19:48;;;;;;;0.67;0.67;;;;;;;25.62;45.36;95245.31;5029869;28;20205;-65
2022/08/10 05:22:36;;;;;;;1.87;1.70;;;;;;;26.11;44.76;95240.53;5029185;28;20239;-65
2022/08/10 05:25:08;;;;;;;2.53;2.37;;;;;;;26.28;44.64;95240.19;5030121;28;20197;-66
2022/08/10 05:27:35;;;;;;;5.50;5.00;;;;;;;26.69;44.08;95234.34;5031043;28;20286;-64
2022/08/10 05:30:04;;;;;;;3.07;1.80;;;;;;;26.72;44.04;95241.69;5031315;28;20205;-67
2022/08/10 05:32:32;;;;;;;0.80;0.80;;;;;;;26.84;43.60;95246.19;5030437;28;20205;-67
2022/08/10 05:35:20;;;;;;;1.20;0.87;;;;;;;26.73;43.18;95251.31;5018629;28;20289;-66
2022/08/10 05:37:50;;;;;;;0.77;0.77;;;;;;;26.56;43.71;95253.56;5024181;28;20200;-68
2022/08/10 05:40:38;;;;;;;0.50;0.50;;;;;;;26.32;44.27;95248.34;5022919;28;20309;-67
2022/08/10 05:43:05;;;;;;;1.03;0.93;;;;;;;26.37;44.16;95248.88;5028957;28;20652;-65
2022/08/10 05:45:32;;;;;;;0.50;0.50;;;;;;;26.45;44.02;95250.59;5029691;28;20219;-68
2022/08/10 05:48:20;;;;;;;2.00;1.43;;;;;;;26.54;43.91;95253.13;5016830;28;20366;-70
2022/08/10 05:51:08;;;;;;;1.10;1.00;;;;;;;26.49;44.26;95251.47;5029806;28;20227;-70
2022/08/10 05:53:37;;;;;;;2.90;1.70;;;;;;;26.35;44.04;95244.97;5030023;28;20632;-69
2022/08/10 05:56:25;;;;;;;1.27;1.07;;;;;;;26.75;43.80;95243.69;5023423;28;20718;-69
2022/08/10 05:58:52;;;;;;;1.20;1.10;;;;;;;26.50;44.40;95242.28;5015942;28;20213;-68
2022/08/10 06:01:24;;;;;;;1.63;1.27;;;;;;;26.52;44.17;95244.63;5029455;28;20707;-67
2022/08/10 06:03:58;;;;;;;0.73;0.73;;;;;;;26.54;43.77;95253.13;5028656;28;20258;-65
2022/08/10 06:06:28;;;;;;;0.53;0.53;;;;;;;26.54;43.72;95248.53;5029736;28;20240;-68
2022/08/10 06:08:57;;;;;;;1.10;1.00;;;;;;;26.76;43.95;95245.25;5029628;28;20189;-68
2022/08/10 06:11:27;;;;;;;1.13;1.00;;;;;;;26.96;43.96;95238.81;5029762;28;20636;-68
2022/08/10 06:17:02;;;;;;;0.80;0.80;;;;;;;27.28;43.09;95246.78;5029508;28;20231;-66
2022/08/10 06:19:30;;;;;;;1.83;1.27;;;;;;;27.73;42.35;95245.06;5029990;28;20193;-70
2022/08/10 06:21:57;;;;;;;1.33;1.17;;;;;;;27.77;42.25;95245.91;5029083;28;20209;-69
2022/08/10 06:24:32;;;;;;;1.50;1.23;;;;;;;27.53;42.68;95242.72;5029960;28;20193;-68
2022/08/10 06:26:59;;;;;;;1.03;0.70;;;;;;;27.54;43.18;95236.19;5029257;28;20243;-69
2022/08/10 06:29:29;;;;;;;0.67;0.67;;;;;;;27.82;42.32;95239.47;5028943;28;20628;-68
2022/08/10 06:31:58;;;;;;;0.40;0.40;;;;;;;27.91;41.42;95240.00;5029299;28;20592;-68
2022/08/10 06:34:30;;;;;;;3.17;1.13;;;;;;;27.89;41.61;95253.06;5029834;28;20283;-68
2022/08/10 06:37:01;;;;;;;0.77;0.77;;;;;;;27.60;41.59;95254.41;5018030;28;20974;-67
2022/08/10 06:39:28;;;;;;;1.47;1.37;;;;;;;26.92;43.21;95256.75;5026858;28;20626;-65
2022/08/10 06:42:03;;;;;;;1.23;1.10;;;;;;;27.45;42.21;95257.16;5027745;28;20640;-71
2022/08/10 06:44:53;;;;;;;0.30;0.30;;;;;;;27.23;41.76;95255.13;5023234;28;20202;-67
2022/08/10 06:47:25;;;;;;;1.53;1.43;;;;;;;27.54;41.79;95255.03;5021852;28;20231;-69
2022/08/10 06:49:55;;;;;;;0.93;0.87;;;;;;;27.87;41.48;95260.72;5028751;28;20730;-68
2022/08/10 06:52:29;;;;;;;0.97;0.97;;;;;;;28.24;40.57;95264.53;5028910;28;20205;-65
2022/08/10 06:54:59;;;;;;;1.40;1.30;;;;;;;28.33;40.30;95250.81;5028310;28;20197;-67
2022/08/10 06:57:29;;;;;;;0.77;0.77;;;;;;;28.49;40.13;95249.53;5028812;28;20193;-67
2022/08/10 07:00:00;;;;;;;4.50;1.37;;;;;;;28.23;39.68;95249.47;5028536;28;20204;-65
2022/08/10 07:02:43;;;;;;;0.80;0.80;;;;;;;27.51;40.11;95236.91;5028623;28;20244;-67
2022/08/10 07:05:15;;;;;;;0.97;0.97;;;;;;;28.27;40.00;95258.41;5027073;28;20714;-68
2022/08/10 07:07:44;;;;;;;0.57;0.57;;;;;;;27.88;39.37;95262.28;5017507;28;20201;-68
2022/08/10 07:10:15;;;;;;;5.37;2.50;;;;;;;28.15;39.70;95260.50;5028982;28;20197;-67
2022/08/10 07:12:43;;;;;;;0.80;0.80;;;;;;;28.27;40.18;95247.63;5030033;28;20208;-64
2022/08/10 07:15:11;;;;;;;0.77;0.77;;;;;;;28.61;40.82;95246.69;5032299;28;20201;-67
2022/08/10 07:17:40;;;;;;;0.87;0.87;;;;;;;28.26;38.75;95246.09;5038622;28;20629;-67
2022/08/10 07:20:09;;;;;;;1.20;1.10;;;;;;;27.72;39.81;95227.34;5021992;28;20283;-67
2022/08/10 07:22:38;;;;;;;0.47;0.47;;;;;;;28.34;40.18;95241.59;5029169;28;20220;-66
2022/08/10 07:25:27;;;;;;;2.17;1.83;;;;;;;29.05;39.66;95243.50;5028406;28;20695;-70
2022/08/10 07:27:56;;;;;;;1.33;1.23;;;;;;;29.34;39.14;95240.09;5028918;28;20572;-67
2022/08/10 07:30:35;;;;;;;0.60;0.60;;;;;;;29.30;37.89;95244.66;5028321;28;20204;-66
2022/08/10 07:33:04;;;;;;;12.10;1.00;;;;;;;29.22;37.14;95243.78;5015944;28;20200;-65
2022/08/10 07:35:33;;;;;;;2.03;1.17;;;;;;;28.87;37.82;95246.72;5028794;28;20201;-68
2022/08/10 07:38:18;;;;;;;0.47;0.47;;;;;;;28.59;38.18;95238.22;5015539;28;20197;-68
2022/08/10 07:40:47;;;;;;;1.63;1.53;;;;;;;28.24;38.79;95236.78;5018463;28;20201;-66
2022/08/10 07:43:17;;;;;;;1.20;1.10;;;;;;;27.74;39.50;95235.84;5028232;28;20220;-65
2022/08/10 07:45:46;;;;;;;1.30;1.20;;;;;;;28.90;38.18;95243.28;5028096;28;20209;-68
2022/08/10 07:48:26;;;;;;;0.67;0.63;;;;;;;28.48;38.77;95237.22;5014355;28;20206;-67
2022/08/10 07:50:58;;;;;;;5.00;1.00;;;;;;;29.12;38.47;95235.53;5014514;28;20201;-67
2022/08/10 07:53:32;;;;;;;0.93;0.87;;;;;;;29.05;38.61;95232.72;5019910;28;20205;-67
2022/08/10 07:56:02;;;;;;;0.83;0.83;;;;;;;29.07;37.47;95225.03;5019581;28;20200;-67
2022/08/10 07:58:52;;;;;;;1.10;1.10;;;;;;;29.10;37.35;95224.31;5027136;28;20273;-66
2022/08/10 08:01:26;;;;;;;3.40;2.13;;;;;;;29.05;37.94;95216.53;5024166;28;20202;-66
2022/08/10 08:03:55;;;;;;;1.00;1.00;;;;;;;29.36;37.23;95216.22;5033551;28;20233;-67
2022/08/10 08:06:40;;;;;;;1.00;1.00;;;;;;;28.98;35.91;95231.47;5036084;28;20731;-68
2022/08/10 08:09:09;;;;;;;0.50;0.50;;;;;;;29.41;35.49;95218.59;5020602;28;20193;-67
2022/08/10 08:11:39;;;;;;;1.20;1.10;;;;;;;29.81;35.75;95222.19;5032137;28;20197;-67
2022/08/10 08:14:07;;;;;;;1.50;1.40;;;;;;;29.79;36.41;95223.69;5031493;28;20656;-68
2022/08/10 08:16:37;;;;;;;0.47;0.47;;;;;;;29.18;35.32;95226.00;5032231;28;20679;-65
2022/08/10 08:19:04;;;;;;;1.10;1.00;;;;;;;29.59;35.77;95214.97;5033120;28;20205;-65
2022/08/10 08:21:53;;;;;;;0.93;0.87;;;;;;;30.09;34.74;95210.88;5037560;28;20673;-66
2022/08/10 08:24:41;;;;;;;0.77;0.77;;;;;;;30.72;34.63;95206.06;5021137;28;20207;-67
2022/08/10 08:27:13;;;;;;;0.67;0.67;;;;;;;31.42;34.00;95210.41;5031500;28;20223;-67
2022/08/10 08:29:43;;;;;;;0.83;0.83;;;;;;;31.49;33.85;95213.16;5031935;28;20201;-66
2022/08/10 08:32:12;;;;;;;0.67;0.67;;;;;;;31.93;32.49;95204.81;5030236;28;20201;-66
2022/08/10 08:34:42;;;;;;;11.10;2.73;;;;;;;30.78;32.05;95203.78;5031552;28;20197;-68
2022/08/10 08:37:10;;;;;;;1.17;1.07;;;;;;;31.44;31.64;95191.84;5031558;28;20205;-66
2022/08/10 08:39:44;;;;;;;0.57;0.57;;;;;;;31.38;32.03;95193.34;5031649;28;20226;-65
2022/08/10 08:42:51;;;;;;;1.40;0.93;;;;;;;31.29;32.06;95196.38;5031196;28;20212;-66
2022/08/10 08:45:55;;;;;;;1.47;1.37;;;;;;;31.57;32.28;95195.75;5021763;28;20217;-67
2022/08/10 08:48:56;;;;;;;0.60;0.60;;;;;;;31.62;31.42;95201.56;5011647;28;20248;-66
2022/08/10 08:51:45;;;;;;;0.60;0.60;;;;;;;31.05;32.15;95201.66;5013534;28;20229;-67
2022/08/10 08:54:40;;;;;;;0.63;0.63;;;;;;;31.18;32.37;95194.78;5018000;28;20267;-66
2022/08/10 08:57:19;;;;;;;1.67;0.87;;;;;;;31.38;32.71;95196.06;5025618;28;20296;-66
2022/08/10 09:00:13;;;;;;;0.93;0.70;;;;;;;31.69;32.00;95192.72;5027173;28;20291;-65
2022/08/10 09:02:40;;;;;;;1.23;0.83;;;;;;;31.62;31.99;95198.09;5031122;28;20259;-68
2022/08/10 09:05:25;;;;;;;0.50;0.50;;;;;;;31.02;31.42;95195.09;5026637;28;20256;-67
2022/08/10 09:08:16;;;;;;;0.70;0.70;;;;;;;31.13;32.87;95187.03;5020212;28;20216;-66
2022/08/10 09:11:01;;;;;;;0.70;0.70;;;;;;;31.57;32.49;95182.19;5030969;28;20214;-67
2022/08/10 09:13:40;;;;;;;1.03;0.93;;;;;;;31.98;32.91;95182.75;5031032;28;20255;-65
2022/08/10 09:16:24;;;;;;;0.63;0.63;;;;;;;32.27;31.65;95195.97;5018590;28;20715;-66
2022/08/10 09:19:24;;;;;;;0.43;0.43;;;;;;;32.46;30.83;95182.03;5030472;28;20205;-67
2022/08/10 09:22:14;;;;;;;0.97;0.87;;;;;;;32.33;30.99;95189.00;5030331;28;20213;-66
2022/08/10 09:24:59;;;;;;;1.43;1.33;;;;;;;32.67;31.13;95176.63;5030709;28;20584;-67
2022/08/10 09:27:33;;;;;;;0.70;0.70;;;;;;;32.70;30.49;95181.25;5030276;28;20209;-66
2022/08/10 09:30:05;;;;;;;1.00;0.77;;;;;;;32.76;29.88;95179.69;5030832;28;20891;-67
2022/08/10 09:32:41;;;;;;;0.47;0.47;;;;;;;32.30;30.65;95178.91;5030214;28;20201;-66
2022/08/10 09:35:56;;;;;;;0.47;0.47;;;;;;;32.41;29.64;95176.22;5030977;28;20204;-67
2022/08/10 09:38:57;;;;;;;0.50;0.50;;;;;;;32.94;29.64;95168.84;5030259;28;20211;-66
2022/08/10 09:41:37;;;;;;;0.40;0.40;;;;;;;33.42;29.58;95177.25;5029771;28;20646;-66
2022/08/10 09:44:19;;;;;;;0.70;0.70;;;;;;;32.92;29.60;95178.53;5030485;28;20288;-65
2022/08/10 09:47:13;;;;;;;0.50;0.50;;;;;;;32.83;29.89;95176.19;5018577;28;20205;-67
2022/08/10 09:50:05;;;;;;;0.73;0.73;;;;;;;32.54;29.58;95178.16;5030313;28;20212;-65
2022/08/10 09:53:05;;;;;;;3.10;0.80;;;;;;;32.67;29.87;95164.97;5029723;28;20256;-66
2022/08/10 09:55:41;;;;;;;0.83;0.83;;;;;;;33.18;29.41;95167.22;5021923;28;20255;-66
2022/08/10 09:58:45;;;;;;;0.60;0.60;;;;;;;33.23;30.10;95175.00;5029564;28;20223;-66
2022/08/10 10:01:21;;;;;;;1.90;0.80;;;;;;;33.71;29.17;95167.81;5029782;28;20295;-68
2022/08/10 10:04:57;;;;;;;0.50;0.50;;;;;;;33.14;29.59;95166.47;5017084;28;20203;-65
2022/08/10 10:07:28;;;;;;;0.70;0.70;;;;;;;33.07;29.83;95167.25;5014581;28;20236;-65
2022/08/10 10:10:09;;;;;;;0.93;0.90;;;;;;;33.52;29.24;95165.59;5030107;28;20240;-64
2022/08/10 10:12:54;;;;;;;0.43;0.43;;;;;;;33.05;29.55;95156.00;5016453;28;20255;-66
2022/08/10 10:15:36;;;;;;;0.50;0.50;;;;;;;33.21;28.22;95153.63;5015624;28;20205;-65
2022/08/10 10:18:06;;;;;;;1.70;1.20;;;;;;;33.50;28.28;95152.38;5030439;28;20205;-64
2022/08/10 10:21:10;;;;;;;1.00;1.00;;;;;;;33.67;28.04;95151.53;5016471;28;20225;-63
2022/08/10 10:23:59;;;;;;;2.37;0.80;;;;;;;33.27;29.47;95154.00;5027912;28;20217;-65
2022/08/10 10:26:58;;;;;;;0.50;0.50;;;;;;;33.57;28.35;95148.88;5021137;28;20209;-64
2022/08/10 10:29:42;;;;;;;0.83;0.83;;;;;;;33.46;27.37;95153.56;5029485;28;20216;-64
2022/08/10 10:32:51;;;;;;;0.47;0.37;;;;;;;33.47;28.60;95146.97;5029823;28;20569;-64
2022/08/10 10:35:35;;;;;;;0.87;0.40;;;;;;;33.78;28.84;95151.47;5030027;28;20367;-67
2022/08/10 10:38:07;;;;;;;0.47;0.47;;;;;;;33.52;28.48;95154.72;5016225;28;20208;-67
2022/08/10 10:40:44;;;;;;;0.70;0.70;;;;;;;33.55;29.13;95153.94;5029594;28;20259;-66
2022/08/10 10:43:32;;;;;;;1.07;0.80;;;;;;;33.65;28.39;95158.53;5016306;28;20244;-66
2022/08/10 10:46:28;;;;;;;6.87;1.10;;;;;;;33.68;28.78;95141.44;5029341;28;20201;-66
2022/08/10 10:49:21;;;;;;;0.80;0.80;;;;;;;33.84;28.28;95139.00;5029588;28;20232;-67
2022/08/10 10:52:01;;;;;;;0.30;0.30;;;;;;;33.84;28.74;95139.00;5028921;28;20731;-67
2022/08/10 10:54:40;;;;;;;0.67;0.57;;;;;;;33.51;29.54;95147.72;5015501;28;20204;-64
2022/08/10 10:57:51;;;;;;;0.43;0.43;;;;;;;33.58;29.20;95136.81;5029307;28;20203;-66
2022/08/10 11:00:35;;;;;;;1.80;0.70;;;;;;;33.30;29.21;95136.94;5010544;28;20216;-66
2022/08/10 11:03:22;;;;;;;0.70;0.70;;;;;;;33.12;29.42;95131.53;5028779;28;20284;-65
2022/08/10 11:06:06;;;;;;;0.87;0.87;;;;;;;33.06;30.25;95137.78;5017135;28;20252;-65
2022/08/10 11:08:43;;;;;;;1.10;1.00;;;;;;;32.87;29.01;95128.09;5027790;28;20232;-65
2022/08/10 11:11:27;;;;;;;0.50;0.50;;;;;;;33.47;29.26;95138.81;5010249;28;20860;-67
2022/08/10 11:14:24;;;;;;;0.97;0.87;;;;;;;33.04;29.46;95134.69;5015810;28;20196;-66
2022/08/10 11:17:13;;;;;;;0.63;0.63;;;;;;;32.78;29.64;95120.38;5028686;28;20209;-63
2022/08/10 11:19:58;;;;;;;0.43;0.43;;;;;;;32.93;28.71;95139.34;5028916;28;20693;-68
2022/08/10 11:22:41;;;;;;;0.93;0.70;;;;;;;32.92;29.43;95144.00;5028601;28;20224;-64
2022/08/10 11:25:43;;;;;;;0.40;0.40;;;;;;;32.74;29.35;95141.31;5029138;28;20300;-68
2022/08/10 11:29:00;;;;;;;0.40;0.40;;;;;;;32.27;30.33;95140.94;5018901;28;20254;-67
2022/08/10 11:31:56;;;;;;;0.40;0.40;;;;;;;32.55;30.24;95147.19;5022013;28;20216;-68
2022/08/10 11:35:02;;;;;;;0.40;0.37;;;;;;;32.33;30.29;95123.13;5033243;28;20380;-67
2022/08/10 11:37:42;;;;;;;0.43;0.43;;;;;;;32.67;30.10;95137.84;5030639;28;20309;-64
2022/08/10 11:40:48;;;;;;;0.77;0.67;;;;;;;32.61;30.01;95129.31;5014631;28;20337;-64
2022/08/10 11:43:26;;;;;;;0.83;0.77;;;;;;;32.39;30.56;95114.19;5012634;28;20207;-67
2022/08/10 11:46:33;;;;;;;0.47;0.47;;;;;;;32.91;30.21;95120.72;5029509;28;20207;-66
2022/08/10 11:49:06;;;;;;;1.07;1.07;;;;;;;32.85;29.73;95124.25;5007314;28;20708;-64
2022/08/10 11:51:55;;;;;;;0.63;0.63;;;;;;;32.90;29.82;95116.47;5039187;28;20197;-66
2022/08/10 11:54:30;;;;;;;0.63;0.63;;;;;;;33.11;29.93;95112.94;5033628;28;20225;-65
2022/08/10 11:56:59;;;;;;;0.53;0.53;;;;;;;32.77;29.80;95110.66;5032341;28;20235;-66
2022/08/10 12:02:39;;;;;;;0.57;0.57;;;;;;;32.95;29.81;95109.91;5032749;28;20239;-65
2022/08/10 12:05:17;;;;;;;0.57;0.57;;;;;;;32.62;30.51;95122.75;5032745;28;20217;-65
2022/08/10 12:07:52;;;;;;;3.03;1.10;;;;;;;32.59;30.24;95131.66;5032442;28;20286;-63
2022/08/10 12:10:41;;;;;;;0.60;0.60;;;;;;;32.52;30.13;95134.38;5031972;28;20754;-66
2022/08/10 12:13:21;;;;;;;0.97;0.97;;;;;;;32.22;30.63;95101.44;5031247;28;20748;-66
2022/08/10 12:15:47;;;;;;;1.90;1.33;;;;;;;32.28;30.38;95137.81;5032430;28;20196;-66
2022/08/10 12:18:20;;;;;;;0.40;0.40;;;;;;;32.23;30.41;95134.72;5032313;28;20613;-65
2022/08/10 12:20:52;;;;;;;0.80;0.80;;;;;;;32.34;31.21;95136.28;5032171;28;20628;-64
2022/08/10 12:23:29;;;;;;;0.43;0.43;;;;;;;32.37;30.61;95143.63;5032359;28;20236;-65
2022/08/10 12:26:28;;;;;;;0.37;0.37;;;;;;;32.40;29.97;95123.91;5026698;28;20289;-64
2022/08/10 12:29:07;;;;;;;1.23;0.90;;;;;;;32.36;30.28;95123.13;5010816;28;20270;-66
2022/08/10 12:31:41;;;;;;;1.10;0.70;;;;;;;32.30;31.76;95127.38;5032214;28;20201;-65